Time;durP1;ratioP1;P1;durP2;ratioP2;P2;SDS_P1;SDS_P2;PMS_P1;PMS_P2;Temp;Humidity;BMP_temperature;BMP_pressure;BME280_temperature;BME280_humidity;BME280_pressure;Samples;Min_cycle;Max_cycle;Signal;HPM_P1;HPM_P2
2023/07/23 00:01:19;;;;;;;18.23;9.00;;;14.40;99.90;;;;;;4942442;23;20047;-87
2023/07/23 00:03:50;;;;;;;21.48;9.73;;;13.80;99.90;;;;;;4922214;29;20044;-86
2023/07/23 00:06:17;;;;;;;15.98;8.77;;;14.20;99.90;;;;;;4927915;23;20040;-87
2023/07/23 00:10:09;;;;;;;16.30;8.98;;;13.70;99.90;;;;;;4913524;29;20058;-86
2023/07/23 00:13:24;;;;;;;20.15;8.63;;;13.80;99.90;;;;;;4956332;28;20536;-87
2023/07/23 00:23:11;;;;;;;21.08;8.98;;;13.40;99.90;;;;;;4955482;29;20044;-87
2023/07/23 00:26:43;;;;;;;19.73;9.63;;;13.50;99.90;;;;;;4939549;29;20067;-86
2023/07/23 00:30:00;;;;;;;19.70;9.25;;;13.90;99.90;;;;;;4939957;28;20476;-87
2023/07/23 00:32:28;;;;;;;19.02;8.18;;;13.80;99.90;;;;;;4972207;28;20513;-87
2023/07/23 00:35:06;;;;;;;16.73;7.57;;;13.90;99.90;;;;;;4975551;28;20078;-87
2023/07/23 00:37:54;;;;;;;15.05;7.78;;;13.80;99.90;;;;;;4974885;28;20061;-86
2023/07/23 00:40:32;;;;;;;18.05;8.05;;;13.90;99.90;;;;;;4958714;28;20093;-86
2023/07/23 00:43:13;;;;;;;17.35;8.43;;;14.90;99.90;;;;;;4954954;28;20035;-86
2023/07/23 00:45:45;;;;;;;17.52;7.93;;;13.90;99.90;;;;;;4938325;29;20063;-86
2023/07/23 00:48:20;;;;;;;18.90;9.13;;;13.90;99.90;;;;;;4948691;28;20582;-86
2023/07/23 00:50:52;;;;;;;19.58;8.50;;;13.90;99.90;;;;;;4958725;28;20130;-86
2023/07/23 00:53:33;;;;;;;16.25;7.88;;;14.80;99.90;;;;;;4975915;28;20050;-86
2023/07/23 00:55:59;;;;;;;16.60;7.60;;;14.00;99.90;;;;;;4993764;23;20368;-86
2023/07/23 00:58:28;;;;;;;16.60;7.60;;;13.90;99.90;;;;;;4958386;28;20054;-86
2023/07/23 01:00:54;;;;;;;16.38;7.10;;;13.90;99.90;;;;;;4975515;28;20042;-87
2023/07/23 01:03:26;;;;;;;14.70;7.30;;;13.90;99.90;;;;;;4954496;28;20050;-87
2023/07/23 01:06:13;;;;;;;18.70;8.05;;;13.90;99.90;;;;;;4955876;28;20118;-87
2023/07/23 01:11:52;;;;;;;17.05;7.38;;;13.90;99.90;;;;;;4973485;28;20077;-86
2023/07/23 01:14:33;;;;;;;16.30;7.07;;;13.90;99.90;;;;;;4975269;28;20081;-87
2023/07/23 01:17:11;;;;;;;16.52;7.30;;;13.90;99.90;;;;;;4974086;28;20049;-87
2023/07/23 01:22:10;;;;;;;16.30;7.60;;;13.90;99.90;;;;;;4940316;23;20051;-86
2023/07/23 01:24:36;;;;;;;17.92;7.85;;;13.90;99.90;;;;;;4979384;23;20520;-87
2023/07/23 01:27:03;;;;;;;15.25;7.28;;;13.90;99.90;;;;;;4935853;29;20099;-87
2023/07/23 01:29:31;;;;;;;17.83;7.50;;;13.90;99.90;;;;;;4936374;29;20087;-88
2023/07/23 01:32:03;;;;;;;17.48;7.32;;;13.90;99.90;;;;;;4967137;23;20043;-88
2023/07/23 01:38:07;;;;;;;15.90;7.75;;;13.90;99.90;;;;;;4937458;23;20154;-87
2023/07/23 01:44:08;;;;;;;18.10;7.82;;;13.70;99.90;;;;;;4994868;23;20121;-88
2023/07/23 01:46:34;;;;;;;16.50;8.20;;;14.00;99.90;;;;;;4957511;28;20129;-88
2023/07/23 01:49:00;;;;;;;18.63;8.60;;;13.90;99.90;;;;;;4966203;28;20138;-88
2023/07/23 01:51:26;;;;;;;16.45;7.93;;;13.80;99.90;;;;;;4954207;29;20126;-88
2023/07/23 01:54:00;;;;;;;20.55;8.68;;;13.80;99.90;;;;;;4948963;29;20452;-89
2023/07/23 01:56:29;;;;;;;17.52;7.78;;;13.80;99.90;;;;;;4940407;29;20051;-88
2023/07/23 01:58:55;;;;;;;20.23;8.68;;;13.80;99.90;;;;;;4954305;28;20552;-88
2023/07/23 02:01:23;;;;;;;16.95;8.27;;;14.70;99.90;;;;;;4964289;28;20122;-89
2023/07/23 02:03:52;;;;;;;21.83;8.80;;;13.80;99.90;;;;;;4946560;28;20702;-88
2023/07/23 02:06:24;;;;;;;20.00;8.52;;;13.80;99.90;;;;;;4937377;29;20055;-91
2023/07/23 02:09:09;;;;;;;19.15;8.68;;;13.70;99.90;;;;;;5337374;23;20025;-89
2023/07/23 02:11:35;;;;;;;18.85;8.35;;;13.80;99.90;;;;;;4937254;29;20059;-89
2023/07/23 02:14:00;;;;;;;20.15;8.77;;;13.80;99.90;;;;;;4934141;29;20036;-89
2023/07/23 02:16:32;;;;;;;20.00;8.70;;;13.80;99.90;;;;;;4919100;29;20047;-89
2023/07/23 02:19:00;;;;;;;18.08;8.20;;;13.80;99.90;;;;;;4930095;29;20079;-89
2023/07/23 02:21:31;;;;;;;20.05;9.10;;;13.30;99.90;;;;;;4955065;29;20105;-89
2023/07/23 02:24:00;;;;;;;21.33;9.13;;;13.80;99.90;;;;;;4937965;29;20050;-90
2023/07/23 02:26:35;;;;;;;19.08;8.75;;;13.80;99.90;;;;;;4953982;29;20110;-89
2023/07/23 02:29:04;;;;;;;19.92;8.95;;;13.70;99.90;;;;;;4953876;29;20054;-89
2023/07/23 02:31:34;;;;;;;21.33;9.57;;;13.70;99.90;;;;;;4941818;29;20108;-89
2023/07/23 02:37:05;;;;;;;19.15;9.70;;;13.80;99.90;;;;;;5740828;23;20042;-88
2023/07/23 02:39:40;;;;;;;21.08;9.82;;;13.70;99.90;;;;;;4952811;29;20518;-88
2023/07/23 02:42:06;;;;;;;21.20;9.93;;;13.70;99.90;;;;;;4953591;29;20380;-89
2023/07/23 02:44:38;;;;;;;25.02;10.82;;;13.70;99.90;;;;;;4969573;28;20065;-88
2023/07/23 02:47:22;;;;;;;20.40;10.20;;;13.70;99.90;;;;;;4972689;28;20039;-88
2023/07/23 02:53:29;;;;;;;19.58;9.32;;;13.40;99.90;;;;;;4954700;23;20076;-89
2023/07/23 02:55:58;;;;;;;22.67;10.20;;;13.30;99.90;;;;;;4935654;29;20043;-89
2023/07/23 02:58:24;;;;;;;20.17;9.20;;;13.70;99.90;;;;;;4948139;23;20047;-89
2023/07/23 03:00:57;;;;;;;21.25;10.52;;;13.70;99.90;;;;;;4969420;28;20065;-88
2023/07/23 03:03:23;;;;;;;21.98;9.82;;;13.80;99.90;;;;;;4952571;29;20391;-89
2023/07/23 03:05:57;;;;;;;23.10;10.10;;;14.70;99.90;;;;;;4954743;29;20086;-88
2023/07/23 03:08:48;;;;;;;22.88;10.85;;;13.80;99.90;;;;;;4942949;28;20455;-88
2023/07/23 03:11:23;;;;;;;21.10;10.25;;;13.80;99.90;;;;;;4960215;28;20050;-88
2023/07/23 03:13:54;;;;;;;24.67;11.13;;;13.80;99.90;;;;;;4973110;28;20072;-88
2023/07/23 03:16:31;;;;;;;24.17;11.00;;;13.80;99.90;;;;;;4996650;23;20033;-88
2023/07/23 03:19:23;;;;;;;20.95;10.20;;;13.70;99.90;;;;;;4956809;29;20555;-88
2023/07/23 03:21:55;;;;;;;25.95;11.13;;;13.80;99.90;;;;;;4941115;29;20082;-88
2023/07/23 03:24:21;;;;;;;23.48;10.80;;;14.60;99.90;;;;;;4949199;29;20051;-88
2023/07/23 03:26:48;;;;;;;22.67;10.32;;;13.80;99.90;;;;;;4957528;29;20046;-88
2023/07/23 03:29:17;;;;;;;22.00;10.20;;;13.80;99.90;;;;;;4968810;28;20047;-88
2023/07/23 03:31:48;;;;;;;24.90;11.13;;;14.10;99.90;;;;;;4959420;28;20057;-88
2023/07/23 03:34:19;;;;;;;24.42;11.90;;;14.50;99.90;;;;;;4957245;29;20486;-88
2023/07/23 03:37:16;;;;;;;23.42;11.57;;;14.00;99.90;;;;;;4963516;23;20050;-88
2023/07/23 03:40:00;;;;;;;22.60;10.25;;;13.80;99.90;;;;;;4949703;23;20047;-88
2023/07/23 03:42:26;;;;;;;21.85;10.52;;;13.80;99.90;;;;;;4939485;29;20082;-88
2023/07/23 03:45:01;;;;;;;22.10;11.23;;;13.80;99.90;;;;;;4938921;29;20055;-88
2023/07/23 03:47:30;;;;;;;22.17;10.65;;;14.60;99.90;;;;;;4937990;29;20047;-87
2023/07/23 03:50:02;;;;;;;22.33;11.20;;;13.80;99.90;;;;;;4942066;29;20048;-89
2023/07/23 03:52:52;;;;;;;24.85;11.45;;;13.90;99.90;;;;;;4938299;29;20094;-88
2023/07/23 03:55:21;;;;;;;22.42;11.13;;;14.00;99.90;;;;;;4864180;29;20073;-88
2023/07/23 03:58:00;;;;;;;20.70;10.23;;;13.50;99.90;;;;;;4896730;29;20100;-88
2023/07/23 04:00:32;;;;;;;23.85;11.13;;;13.90;99.90;;;;;;4880609;29;20048;-87
2023/07/23 04:03:00;;;;;;;21.25;10.88;;;13.90;99.90;;;;;;4871111;29;20049;-87
2023/07/23 04:05:50;;;;;;;20.80;10.95;;;14.10;99.90;;;;;;4891733;29;20060;-87
2023/07/23 04:08:38;;;;;;;21.23;11.07;;;13.70;99.90;;;;;;4896466;29;20056;-87
2023/07/23 04:11:53;;;;;;;21.55;10.43;;;14.00;99.90;;;;;;4882150;29;20063;-88
2023/07/23 04:14:19;;;;;;;18.58;10.35;;;13.90;99.90;;;;;;5036983;23;20106;-87
2023/07/23 04:16:46;;;;;;;20.88;10.82;;;14.90;99.90;;;;;;4954973;29;20055;-88
2023/07/23 04:19:27;;;;;;;19.70;10.77;;;13.90;99.90;;;;;;4940166;29;20051;-88
2023/07/23 04:22:11;;;;;;;25.15;11.10;;;13.90;99.90;;;;;;4957225;28;20122;-88
2023/07/23 04:24:36;;;;;;;;;;;13.90;99.90;;;;;;4957002;29;20045;-88
2023/07/23 04:27:07;;;;;;;22.08;11.43;;;13.90;99.90;;;;;;4956677;29;20005;-87
2023/07/23 04:29:46;;;;;;;21.30;11.13;;;13.40;99.90;;;;;;4935744;29;20048;-87
2023/07/23 04:32:33;;;;;;;25.85;11.93;;;14.00;99.90;;;;;;4938032;29;20047;-88
2023/07/23 04:39:25;;;;;;;20.55;11.93;;;14.00;99.90;;;;;;4949270;28;20484;-88
2023/07/23 04:41:53;;;;;;;21.50;10.70;;;14.00;99.90;;;;;;4918637;29;20115;-89
2023/07/23 04:44:23;;;;;;;21.42;11.60;;;14.00;99.90;;;;;;4955540;23;20075;-88
2023/07/23 04:46:51;;;;;;;25.05;12.30;;;14.00;99.90;;;;;;4935607;29;20505;-88
2023/07/23 04:49:19;;;;;;;22.88;11.90;;;14.00;99.90;;;;;;4932641;29;20056;-88
2023/07/23 04:54:38;;;;;;;22.08;11.60;;;13.70;99.90;;;;;;5568638;23;20066;-89
2023/07/23 04:57:07;;;;;;;20.23;10.93;;;15.10;99.90;;;;;;4975584;28;20039;-88
2023/07/23 04:59:51;;;;;;;23.23;11.35;;;14.50;99.90;;;;;;4975329;28;20155;-88
2023/07/23 05:02:19;;;;;;;21.33;11.23;;;14.20;99.90;;;;;;4975538;28;20443;-87
2023/07/23 05:07:21;;;;;;;19.85;10.88;;;14.10;99.90;;;;;;5506574;23;19926;-86
2023/07/23 05:09:47;;;;;;;21.70;10.85;;;13.70;99.90;;;;;;4974512;28;20129;-89
2023/07/23 05:12:25;;;;;;;22.35;11.45;;;15.10;99.90;;;;;;4958086;28;20521;-88
2023/07/23 05:15:26;;;;;;;22.35;10.90;;;14.90;99.90;;;;;;4974880;28;20082;-88
2023/07/23 05:17:52;;;;;;;22.75;11.68;;;14.10;99.90;;;;;;4975228;28;20046;-88
2023/07/23 05:20:21;;;;;;;22.08;11.52;;;14.20;99.90;;;;;;4955194;28;20177;-89
2023/07/23 05:22:47;;;;;;;21.23;11.07;;;14.20;99.90;;;;;;4937702;29;20137;-88
2023/07/23 05:25:15;;;;;;;22.60;11.52;;;13.80;99.90;;;;;;4951532;28;20046;-88
2023/07/23 05:30:29;;;;;;;22.50;11.48;;;14.40;99.90;;;;;;4947276;23;20062;-88
2023/07/23 05:33:01;;;;;;;20.75;11.85;;;14.30;99.90;;;;;;4918872;29;20126;-88
2023/07/23 05:35:27;;;;;;;20.63;11.82;;;15.30;99.90;;;;;;4936472;29;20515;-88
2023/07/23 05:37:52;;;;;;;19.73;11.88;;;15.50;99.90;;;;;;4919001;29;20044;-88
2023/07/23 05:46:24;;;;;;;;;;;;;;;;;;;;;
2023/07/23 05:52:27;;;;;;;22.33;11.80;;;14.50;99.90;;;;;;5308293;23;20058;-85
2023/07/23 06:11:51;;;;;;;21.52;11.18;;;14.70;99.90;;;;;;4938697;29;20055;-84
2023/07/23 06:14:19;;;;;;;21.48;11.10;;;15.00;99.90;;;;;;4959582;28;20043;-83
2023/07/23 06:16:58;;;;;;;;;;;;;;;;;;;;;
2023/07/23 06:22:15;;;;;;;20.05;10.88;;;15.20;99.90;;;;;;5006037;23;20054;-83
2023/07/23 06:25:56;;;;;;;20.27;11.07;;;15.40;99.90;;;;;;4975351;28;20053;-83
2023/07/23 06:31:50;;;;;;;18.15;10.25;;;15.00;99.90;;;;;;4968807;28;20510;-83
2023/07/23 06:34:42;;;;;;;18.20;10.07;;;15.40;99.90;;;;;;4950288;28;20043;-81
2023/07/23 06:37:26;;;;;;;15.18;8.80;;;15.40;99.90;;;;;;4946450;29;20392;-82
2023/07/23 06:40:10;;;;;;;16.15;9.80;;;15.80;99.90;;;;;;4936184;29;20047;-84
2023/07/23 06:42:42;;;;;;;17.42;9.25;;;15.60;99.90;;;;;;4945045;29;20043;-81
2023/07/23 06:45:13;;;;;;;16.52;9.00;;;15.70;99.90;;;;;;4945237;28;20042;-80
2023/07/23 06:47:45;;;;;;;17.85;9.52;;;15.70;99.90;;;;;;4946451;29;20051;-80
2023/07/23 06:50:11;;;;;;;16.13;9.13;;;15.80;99.90;;;;;;4944345;28;20051;-80
2023/07/23 06:52:36;;;;;;;17.63;8.90;;;16.50;99.90;;;;;;4939073;29;20050;-80
2023/07/23 06:55:02;;;;;;;17.10;9.02;;;15.90;99.90;;;;;;4955417;29;20043;-81
2023/07/23 06:57:28;;;;;;;15.88;8.55;;;15.90;99.90;;;;;;4962328;28;20386;-82
2023/07/23 07:00:31;;;;;;;16.83;8.15;;;16.00;99.90;;;;;;4965816;28;20093;-81
2023/07/23 07:03:05;;;;;;;14.98;8.25;;;16.40;99.90;;;;;;4948642;29;20496;-80
2023/07/23 07:06:27;;;;;;;14.65;8.20;;;16.00;99.90;;;;;;4956856;28;20066;-80
2023/07/23 07:09:43;;;;;;;17.50;8.23;;;16.00;99.90;;;;;;4967633;28;20098;-80
2023/07/23 07:12:24;;;;;;;14.38;8.57;;;15.50;99.90;;;;;;4859963;29;20136;-81
2023/07/23 07:14:50;;;;;;;15.30;8.23;;;16.00;99.90;;;;;;4856339;29;20057;-80
2023/07/23 07:17:21;;;;;;;16.58;8.65;;;16.10;99.90;;;;;;4844818;29;20465;-80
2023/07/23 07:19:47;;;;;;;21.05;8.38;;;16.70;99.90;;;;;;4844116;29;20050;-80
2023/07/23 07:22:12;;;;;;;14.15;8.38;;;16.10;99.90;;;;;;4919623;28;20049;-80
2023/07/23 07:24:38;;;;;;;15.93;8.57;;;16.10;99.90;;;;;;4961376;28;20508;-81
2023/07/23 07:27:09;;;;;;;15.18;8.60;;;16.10;99.90;;;;;;4958400;28;20042;-81
2023/07/23 07:29:39;;;;;;;18.08;8.90;;;16.10;99.90;;;;;;4952655;29;20075;-81
2023/07/23 07:32:09;;;;;;;20.65;8.70;;;16.10;99.90;;;;;;4955626;29;20480;-80
2023/07/23 07:34:35;;;;;;;17.95;8.85;;;16.10;99.90;;;;;;4937967;29;20047;-80
2023/07/23 07:37:01;;;;;;;15.05;8.75;;;16.10;99.90;;;;;;4974898;23;20039;-80
2023/07/23 07:40:17;;;;;;;18.05;9.00;;;16.10;99.90;;;;;;4955938;28;20133;-80
2023/07/23 07:42:42;;;;;;;15.38;8.20;;;16.00;99.90;;;;;;4954686;28;20059;-80
2023/07/23 07:45:08;;;;;;;16.42;9.05;;;16.00;99.90;;;;;;4965124;28;20062;-80
2023/07/23 07:47:34;;;;;;;15.95;8.20;;;16.00;99.90;;;;;;4960057;28;20043;-80
2023/07/23 07:50:00;;;;;;;16.15;8.70;;;16.00;99.90;;;;;;4939878;29;20043;-80
2023/07/23 07:52:28;;;;;;;15.52;8.27;;;16.30;99.90;;;;;;4953976;29;20052;-80
2023/07/23 07:54:54;;;;;;;15.07;7.85;;;16.00;99.90;;;;;;4960209;28;20054;-80
2023/07/23 07:57:23;;;;;;;16.80;8.68;;;16.00;99.90;;;;;;4964260;28;20301;-85
2023/07/23 07:59:51;;;;;;;17.98;8.23;;;15.90;99.90;;;;;;4950263;29;20047;-84
2023/07/23 08:02:17;;;;;;;15.07;7.95;;;15.80;99.90;;;;;;4950822;28;20051;-81
2023/07/23 08:04:43;;;;;;;15.27;8.27;;;15.80;99.90;;;;;;4941382;29;20051;-85
2023/07/23 08:07:09;;;;;;;16.02;7.65;;;15.80;99.90;;;;;;4950256;28;20051;-82
2023/07/23 08:09:37;;;;;;;14.50;7.35;;;15.80;99.90;;;;;;4965142;28;20038;-82
2023/07/23 08:12:06;;;;;;;17.92;8.85;;;15.70;99.90;;;;;;4944765;29;20062;-83
2023/07/23 08:14:33;;;;;;;17.33;8.10;;;15.70;99.90;;;;;;4966175;28;20047;-80
2023/07/23 08:17:02;;;;;;;15.18;8.60;;;15.60;99.90;;;;;;4942240;28;20073;-81
2023/07/23 08:22:35;;;;;;;17.27;7.80;;;15.40;99.90;;;;;;4876330;29;20072;-84
2023/07/23 08:25:24;;;;;;;15.35;7.28;;;15.40;99.90;;;;;;4858167;29;20227;-84
2023/07/23 08:28:29;;;;;;;16.70;7.60;;;15.50;99.90;;;;;;4857991;29;20049;-84
2023/07/23 08:31:45;;;;;;;16.23;7.28;;;15.30;99.90;;;;;;5261091;23;20062;-85
2023/07/23 08:40:12;;;;;;;13.93;6.88;;;15.40;99.90;;;;;;4952553;23;20119;-85
2023/07/23 08:43:26;;;;;;;16.63;7.55;;;15.40;99.90;;;;;;4945930;29;20044;-85
2023/07/23 08:46:21;;;;;;;15.00;7.57;;;15.40;99.90;;;;;;4928453;29;20051;-84
2023/07/23 08:48:58;;;;;;;15.95;7.32;;;15.50;99.90;;;;;;4926886;29;20035;-83
2023/07/23 08:51:30;;;;;;;15.27;7.90;;;15.40;99.90;;;;;;4926655;29;20052;-82
2023/07/23 08:53:57;;;;;;;15.80;7.90;;;15.40;99.90;;;;;;4933518;29;20075;-83
2023/07/23 08:56:22;;;;;;;17.77;8.93;;;15.50;99.90;;;;;;4944853;29;20058;-83
2023/07/23 08:58:53;;;;;;;16.50;8.15;;;15.60;99.90;;;;;;4920534;29;20044;-83
2023/07/23 09:01:19;;;;;;;20.05;8.65;;;15.50;99.90;;;;;;4927779;29;20134;-83
2023/07/23 09:03:44;;;;;;;17.45;8.60;;;15.60;99.90;;;;;;4924200;29;20147;-82
2023/07/23 09:06:10;;;;;;;17.92;9.40;;;15.60;99.90;;;;;;4929196;28;20094;-83
2023/07/23 09:08:36;;;;;;;15.68;8.07;;;15.70;99.90;;;;;;4937093;29;20075;-83
2023/07/23 09:11:04;;;;;;;17.48;8.55;;;16.00;99.90;;;;;;4944899;29;20114;-83
2023/07/23 09:16:30;;;;;;;17.00;8.88;;;16.30;99.90;;;;;;4842428;29;20475;-83
2023/07/23 09:23:11;;;;;;;13.75;7.35;;;15.40;99.90;;;;;;4810137;29;20050;-83
2023/07/23 09:25:44;;;;;;;14.85;7.90;;;15.40;99.90;;;;;;4819240;29;20068;-83
2023/07/23 09:28:56;;;;;;;15.18;7.85;;;15.40;99.90;;;;;;4918971;29;20063;-83
2023/07/23 09:31:27;;;;;;;14.82;7.88;;;15.30;99.90;;;;;;4922144;29;20052;-83
2023/07/23 09:34:12;;;;;;;18.50;7.45;;;15.40;99.90;;;;;;4945989;29;20119;-82
2023/07/23 09:37:10;;;;;;;15.27;7.28;;;15.50;99.90;;;;;;4939350;29;20654;-83
2023/07/23 09:39:37;;;;;;;14.80;7.45;;;15.50;99.90;;;;;;4873159;29;20058;-83
2023/07/23 09:42:04;;;;;;;14.20;6.97;;;15.50;99.90;;;;;;4926761;29;20074;-84
2023/07/23 09:44:30;;;;;;;13.60;7.15;;;15.50;99.90;;;;;;4925886;29;20047;-83
2023/07/23 09:46:58;;;;;;;13.13;6.72;;;15.50;99.90;;;;;;4944166;29;20472;-83
2023/07/23 09:49:29;;;;;;;13.63;6.85;;;15.50;99.90;;;;;;4924664;29;20404;-82
2023/07/23 09:51:55;;;;;;;12.45;6.45;;;15.50;99.90;;;;;;4944381;29;20046;-83
2023/07/23 09:54:21;;;;;;;13.15;6.40;;;15.60;99.90;;;;;;4944630;29;20031;-84
2023/07/23 09:56:49;;;;;;;13.27;6.55;;;15.60;99.90;;;;;;4928344;29;20082;-83
2023/07/23 09:59:15;;;;;;;12.32;6.00;;;15.70;99.90;;;;;;4922450;29;20055;-83
2023/07/23 10:01:40;;;;;;;11.95;6.10;;;15.70;99.90;;;;;;4940110;29;20548;-83
2023/07/23 10:04:08;;;;;;;13.02;5.93;;;16.20;99.90;;;;;;4942722;29;20051;-82
2023/07/23 10:06:34;;;;;;;11.55;6.35;;;15.80;99.90;;;;;;4941167;29;20133;-83
2023/07/23 10:09:02;;;;;;;11.35;5.70;;;15.70;99.90;;;;;;4940879;29;20134;-83
2023/07/23 10:11:28;;;;;;;12.82;5.57;;;15.70;99.90;;;;;;4933571;29;20555;-83
2023/07/23 10:13:54;;;;;;;12.23;6.18;;;15.70;99.90;;;;;;4955258;28;20039;-83
2023/07/23 10:16:33;;;;;;;11.90;5.72;;;15.70;99.90;;;;;;4937749;29;20614;-83
2023/07/23 10:19:00;;;;;;;13.60;5.75;;;15.70;99.90;;;;;;4955408;28;20075;-83
2023/07/23 10:21:33;;;;;;;12.73;5.80;;;15.80;99.90;;;;;;4955614;29;20043;-82
2023/07/23 10:24:00;;;;;;;11.73;5.18;;;15.90;99.90;;;;;;4937866;29;20102;-82
2023/07/23 10:26:28;;;;;;;11.10;5.32;;;15.90;99.90;;;;;;4937226;29;20051;-82
2023/07/23 10:29:11;;;;;;;10.40;5.30;;;15.90;99.90;;;;;;4956522;29;20377;-83
2023/07/23 10:31:38;;;;;;;11.48;5.50;;;15.80;99.90;;;;;;4936916;29;20114;-83
2023/07/23 10:34:25;;;;;;;10.20;5.30;;;16.20;99.90;;;;;;4938452;29;20051;-82
2023/07/23 10:37:09;;;;;;;12.93;6.18;;;15.80;99.90;;;;;;4937707;29;20054;-82
2023/07/23 10:39:44;;;;;;;;;;;15.80;99.90;;;;;;4954502;28;20078;-82
2023/07/23 10:42:10;;;;;;;11.98;5.97;;;15.80;99.90;;;;;;4937667;29;19961;-82
2023/07/23 10:44:38;;;;;;;12.32;6.20;;;15.80;99.90;;;;;;4937968;29;20094;-82
2023/07/23 10:47:33;;;;;;;12.07;5.85;;;15.90;99.90;;;;;;4961747;28;20089;-82
2023/07/23 10:50:15;;;;;;;12.88;6.03;;;15.90;99.90;;;;;;4957039;28;20057;-83
2023/07/23 10:52:52;;;;;;;12.65;6.47;;;15.90;99.90;;;;;;4954395;28;20043;-84
2023/07/23 10:55:50;;;;;;;11.25;5.57;;;15.90;99.90;;;;;;4937927;29;20049;-85
2023/07/23 10:58:21;;;;;;;11.75;6.13;;;15.90;99.90;;;;;;4938553;29;20095;-84
2023/07/23 11:00:47;;;;;;;12.40;6.00;;;16.00;99.90;;;;;;4936576;29;20488;-84
2023/07/23 11:03:16;;;;;;;11.35;5.90;;;16.00;99.90;;;;;;4955854;29;20141;-84
2023/07/23 11:05:42;;;;;;;12.10;6.28;;;16.00;99.90;;;;;;4937960;29;20050;-85
2023/07/23 11:08:24;;;;;;;11.60;6.05;;;16.00;99.90;;;;;;4955798;29;20054;-84
2023/07/23 11:10:59;;;;;;;11.85;6.28;;;16.10;99.90;;;;;;4937280;29;20043;-82
2023/07/23 11:13:27;;;;;;;11.52;6.10;;;16.10;99.90;;;;;;4959983;28;20066;-82
2023/07/23 11:15:54;;;;;;;11.68;6.03;;;16.10;99.90;;;;;;4936235;29;20043;-82
2023/07/23 11:18:19;;;;;;;13.07;6.43;;;16.20;99.90;;;;;;4946130;28;20248;-81
2023/07/23 11:20:50;;;;;;;11.02;5.95;;;16.50;99.90;;;;;;4926872;29;20130;-81
2023/07/23 11:23:17;;;;;;;11.57;5.82;;;16.40;99.90;;;;;;4916547;29;20187;-81
2023/07/23 11:25:44;;;;;;;11.95;5.88;;;16.20;99.90;;;;;;4936126;29;20058;-81
2023/07/23 11:28:13;;;;;;;12.35;6.55;;;16.20;99.90;;;;;;4936432;29;20043;-82
2023/07/23 11:30:39;;;;;;;13.38;6.32;;;16.20;99.90;;;;;;4936754;29;20051;-82
2023/07/23 11:33:05;;;;;;;12.50;6.35;;;16.30;99.90;;;;;;4958083;29;20531;-80
2023/07/23 11:35:39;;;;;;;11.27;5.55;;;16.20;99.90;;;;;;4939101;29;20051;-80
2023/07/23 11:38:05;;;;;;;12.32;6.53;;;16.30;99.90;;;;;;4940811;29;20054;-81
2023/07/23 11:40:31;;;;;;;14.45;8.20;;;16.30;99.90;;;;;;4940221;29;20407;-81
2023/07/23 11:43:04;;;;;;;14.38;6.45;;;16.30;99.90;;;;;;4940462;29;20399;-81
2023/07/23 11:45:30;;;;;;;15.00;6.50;;;16.30;99.90;;;;;;4940515;29;20046;-81
2023/07/23 11:47:55;;;;;;;12.40;6.55;;;16.40;99.90;;;;;;4957187;29;20059;-81
2023/07/23 11:50:23;;;;;;;11.68;6.07;;;16.30;99.90;;;;;;4938238;29;20058;-81
2023/07/23 11:52:50;;;;;;;12.32;6.00;;;16.30;99.90;;;;;;4957152;29;20125;-82
2023/07/23 11:55:23;;;;;;;11.75;5.97;;;16.30;99.90;;;;;;4940424;29;20040;-81
2023/07/23 11:57:54;;;;;;;11.77;5.68;;;16.30;99.90;;;;;;4956295;28;20051;-81
2023/07/23 12:00:33;;;;;;;11.77;5.30;;;16.50;99.90;;;;;;4939337;28;20051;-80
2023/07/23 12:02:59;;;;;;;10.57;4.97;;;16.40;99.90;;;;;;4957121;29;20047;-81
2023/07/23 12:05:25;;;;;;;11.10;4.97;;;16.40;99.90;;;;;;4939824;29;20051;-81
2023/07/23 12:07:55;;;;;;;11.70;5.78;;;16.40;99.90;;;;;;4939959;29;20408;-80
2023/07/23 12:10:20;;;;;;;11.27;5.32;;;16.50;99.90;;;;;;4939371;29;20513;-81
2023/07/23 12:12:47;;;;;;;10.70;5.10;;;16.40;99.90;;;;;;4956998;29;20126;-81
2023/07/23 12:15:14;;;;;;;12.60;5.07;;;16.50;99.90;;;;;;4956984;29;20036;-81
2023/07/23 12:17:41;;;;;;;10.70;4.78;;;16.50;99.90;;;;;;4956664;29;20051;-80
2023/07/23 12:20:15;;;;;;;10.95;4.63;;;16.50;99.90;;;;;;4939794;29;20050;-81
2023/07/23 12:22:51;;;;;;;9.45;4.30;;;16.50;99.90;;;;;;4957268;29;20047;-81
2023/07/23 12:25:17;;;;;;;9.93;4.40;;;16.50;99.90;;;;;;4938969;29;20058;-81
2023/07/23 12:27:42;;;;;;;10.68;4.95;;;16.50;99.90;;;;;;4939350;28;20047;-81
2023/07/23 12:30:08;;;;;;;10.50;4.90;;;16.50;99.90;;;;;;4939145;28;20045;-83
2023/07/23 12:32:37;;;;;;;10.52;4.65;;;16.60;99.90;;;;;;4928915;29;20047;-82
2023/07/23 12:35:03;;;;;;;9.00;4.15;;;16.70;99.90;;;;;;4947515;29;20062;-82
2023/07/23 12:37:32;;;;;;;10.35;4.40;;;16.60;99.90;;;;;;4957237;29;20493;-83
2023/07/23 12:39:57;;;;;;;8.70;4.13;;;16.70;99.90;;;;;;4937082;29;20051;-83
2023/07/23 12:42:23;;;;;;;8.90;3.85;;;16.70;99.90;;;;;;4955448;28;20055;-83
2023/07/23 12:44:49;;;;;;;8.02;3.63;;;16.70;99.90;;;;;;4939273;29;20062;-82
2023/07/23 12:47:15;;;;;;;9.02;3.60;;;16.90;99.90;;;;;;4938744;29;20094;-82
2023/07/23 12:49:41;;;;;;;7.88;3.40;;;16.80;99.90;;;;;;4939401;29;20109;-82
2023/07/23 12:52:07;;;;;;;9.98;3.30;;;16.90;99.90;;;;;;4938768;29;20090;-82
2023/07/23 12:54:34;;;;;;;8.25;3.20;;;16.90;99.90;;;;;;4939211;29;20047;-82
2023/07/23 12:57:01;;;;;;;8.15;3.25;;;17.10;99.90;;;;;;4956377;28;20126;-81
2023/07/23 12:59:27;;;;;;;8.30;3.40;;;17.10;99.90;;;;;;4938761;29;20039;-82
2023/07/23 13:01:53;;;;;;;8.23;3.20;;;17.10;99.90;;;;;;4955331;28;20169;-82
2023/07/23 13:04:19;;;;;;;9.23;3.22;;;17.10;99.90;;;;;;4956150;28;20114;-81
2023/07/23 13:06:45;;;;;;;7.88;3.25;;;17.30;99.90;;;;;;4934992;29;20048;-82
2023/07/23 13:09:11;;;;;;;8.13;3.50;;;17.60;99.90;;;;;;4921428;29;20055;-82
2023/07/23 13:11:36;;;;;;;9.32;3.70;;;17.90;99.90;;;;;;4938468;29;20062;-82
2023/07/23 13:14:02;;;;;;;7.85;3.28;;;18.10;99.90;;;;;;4937926;29;20043;-82
2023/07/23 13:16:27;;;;;;;9.55;3.90;;;18.40;99.90;;;;;;4939323;29;20391;-82
2023/07/23 13:18:53;;;;;;;9.15;3.88;;;18.90;99.90;;;;;;4939099;29;20039;-81
2023/07/23 13:21:19;;;;;;;9.32;4.22;;;19.20;99.90;;;;;;4955574;29;20102;-82
2023/07/23 13:23:44;;;;;;;9.70;4.15;;;19.20;99.90;;;;;;4954878;29;20106;-82
2023/07/23 13:26:10;;;;;;;10.48;4.72;;;19.40;99.90;;;;;;4954825;29;20071;-82
2023/07/23 13:28:36;;;;;;;10.80;4.53;;;19.60;99.90;;;;;;4955206;29;20130;-82
2023/07/23 13:31:01;;;;;;;10.68;4.40;;;19.40;99.90;;;;;;4955813;28;20123;-82
2023/07/23 13:33:29;;;;;;;10.00;4.55;;;19.50;99.90;;;;;;4956123;28;20507;-82
2023/07/23 13:35:54;;;;;;;11.00;5.25;;;19.50;99.90;;;;;;4955222;29;20130;-82
2023/07/23 13:38:22;;;;;;;12.13;5.32;;;19.50;99.90;;;;;;4955910;29;20138;-82
2023/07/23 13:40:47;;;;;;;10.23;5.65;;;19.50;99.90;;;;;;4933085;29;22201;-86
2023/07/23 13:43:13;;;;;;;11.35;5.15;;;19.80;99.90;;;;;;4924804;29;20050;-83
2023/07/23 13:45:39;;;;;;;10.32;5.25;;;19.80;99.90;;;;;;4943441;28;20047;-84
2023/07/23 13:48:05;;;;;;;11.15;5.75;;;19.90;99.90;;;;;;4944390;29;20055;-86
2023/07/23 13:53:43;;;;;;;10.63;5.68;;;20.00;99.90;;;;;;4867568;29;20063;-85
2023/07/23 14:00:44;;;;;;;11.88;6.05;;;19.30;99.90;;;;;;4832366;29;20080;-89
2023/07/23 14:04:02;;;;;;;11.63;5.75;;;19.40;99.90;;;;;;4843005;29;20097;-84
2023/07/23 14:07:19;;;;;;;11.95;6.10;;;19.30;99.90;;;;;;4825572;29;20075;-87
2023/07/23 14:09:44;;;;;;;10.93;5.63;;;19.40;99.90;;;;;;4857598;23;20093;-85
2023/07/23 14:13:15;;;;;;;11.13;5.20;;;19.60;99.90;;;;;;4954134;28;20083;-87
2023/07/23 14:15:41;;;;;;;10.43;5.70;;;19.50;99.90;;;;;;4943830;29;20052;-84
2023/07/23 14:18:22;;;;;;;11.25;5.80;;;19.80;99.90;;;;;;4918097;29;20054;-84
2023/07/23 14:21:04;;;;;;;10.50;5.15;;;20.10;99.90;;;;;;4927158;29;20074;-83
2023/07/23 14:23:41;;;;;;;10.30;5.40;;;20.40;99.90;;;;;;4934273;29;20055;-84
2023/07/23 14:26:08;;;;;;;11.43;5.65;;;20.50;99.90;;;;;;4932832;29;20053;-83
2023/07/23 14:28:35;;;;;;;10.65;5.75;;;21.00;99.90;;;;;;4954573;28;20513;-85
2023/07/23 14:31:01;;;;;;;10.82;5.75;;;20.90;99.90;;;;;;4924200;29;20110;-84
2023/07/23 14:33:27;;;;;;;11.15;5.70;;;20.90;99.90;;;;;;4935945;29;20131;-86
2023/07/23 14:36:05;;;;;;;11.43;5.95;;;20.90;99.90;;;;;;4918192;29;20558;-86
2023/07/23 14:38:31;;;;;;;10.13;5.32;;;21.00;99.90;;;;;;4917599;29;20063;-84
2023/07/23 14:41:50;;;;;;;9.77;5.35;;;21.00;99.90;;;;;;4919608;29;20051;-84
2023/07/23 14:44:15;;;;;;;9.48;4.50;;;20.80;99.90;;;;;;4952402;29;20112;-84
2023/07/23 14:46:42;;;;;;;9.20;4.55;;;20.70;99.90;;;;;;4919224;29;20094;-84